createdAt,value
2023-04-11T00:00:44.973Z,78.80
2023-04-11T00:05:49.442Z,81.50
2023-04-11T00:10:52.317Z,86.10
2023-04-11T00:15:55.900Z,89.80
2023-04-11T00:21:00.174Z,91.40
2023-04-11T00:26:03.898Z,93.30
2023-04-11T00:31:07.375Z,96.20
2023-04-11T00:36:18.852Z,99.90
2023-04-11T00:41:21.828Z,99.90
2023-04-11T00:46:25.441Z,99.90
2023-04-11T00:51:29.895Z,99.90
2023-04-11T00:56:33.072Z,99.90
2023-04-11T01:01:36.446Z,99.90
2023-04-11T01:06:41.703Z,99.90
2023-04-11T01:11:44.664Z,99.90
2023-04-11T01:16:48.545Z,99.90
2023-04-11T01:21:54.328Z,99.90
2023-04-11T01:26:58.715Z,99.90
2023-04-11T01:32:01.554Z,99.90
2023-04-11T01:37:04.730Z,99.90
2023-04-11T01:42:11.091Z,99.90
2023-04-11T01:47:13.977Z,99.90
2023-04-11T01:52:16.825Z,99.90
2023-04-11T01:57:21.035Z,99.90
2023-04-11T02:02:25.983Z,99.90
2023-04-11T02:07:28.963Z,99.90
2023-04-11T02:12:33.164Z,99.90
2023-04-11T02:17:36.836Z,99.90
2023-04-11T02:22:39.947Z,99.90
2023-04-11T02:27:44.873Z,99.90
2023-04-11T02:32:49.330Z,99.90
2023-04-11T02:37:52.340Z,99.90
2023-04-11T02:42:56.538Z,99.90
2023-04-11T02:48:00.150Z,99.90
2023-04-11T02:53:03.151Z,99.90
2023-04-11T02:58:08.452Z,99.90
2023-04-11T03:03:12.684Z,99.90
2023-04-11T03:08:19.867Z,99.90
2023-04-11T03:13:29.079Z,99.90
2023-04-11T03:18:32.271Z,99.90
2023-04-11T03:23:39.328Z,99.90
2023-04-11T03:28:43.628Z,99.90
2023-04-11T03:33:47.821Z,99.90
2023-04-11T03:38:50.755Z,99.90
2023-04-11T03:43:55.864Z,99.90
2023-04-11T03:48:58.987Z,99.90
2023-04-11T03:54:02.370Z,99.90
2023-04-11T03:59:11.469Z,99.90
2023-04-11T04:04:25.700Z,99.90
2023-04-11T04:09:41.102Z,99.90
2023-04-11T04:14:46.565Z,99.90
2023-04-11T04:19:52.519Z,99.90
2023-04-11T04:24:58.283Z,99.90
2023-04-11T04:30:10.468Z,99.90
2023-04-11T04:35:28.690Z,99.90
2023-04-11T04:40:40.001Z,99.90
2023-04-11T04:45:45.275Z,99.90
2023-04-11T04:50:52.318Z,99.90
2023-04-11T04:55:55.926Z,99.90
2023-04-11T05:01:02.503Z,99.90
2023-04-11T05:06:07.522Z,99.90
2023-04-11T05:11:11.265Z,99.90
2023-04-11T05:16:15.837Z,99.90
2023-04-11T05:21:19.268Z,99.90
2023-04-11T05:26:27.541Z,99.90
2023-04-11T05:31:32.050Z,99.90
2023-04-11T05:36:35.299Z,99.90
2023-04-11T05:41:38.247Z,99.90
2023-04-11T05:46:42.504Z,99.90
2023-04-11T05:51:45.354Z,99.90
2023-04-11T05:56:48.192Z,99.90
2023-04-11T06:01:52.471Z,99.90
2023-04-11T06:06:55.434Z,99.90
2023-04-11T06:11:58.427Z,99.90
2023-04-11T06:17:02.664Z,99.90
2023-04-11T06:22:06.766Z,99.90
2023-04-11T06:27:10.746Z,99.90
2023-04-11T06:32:15.104Z,99.90
2023-04-11T06:37:17.987Z,99.90
2023-04-11T06:42:21.204Z,99.90
2023-04-11T06:47:29.081Z,99.90
2023-04-11T06:52:32.059Z,99.90
2023-04-11T06:57:34.956Z,99.90
2023-04-11T07:02:40.236Z,99.90
2023-04-11T07:07:43.228Z,99.90
2023-04-11T07:12:47.120Z,99.90
2023-04-11T07:17:52.917Z,99.90
2023-04-11T07:22:56.669Z,99.90
2023-04-11T07:28:00.215Z,99.90
2023-04-11T07:33:04.577Z,99.90
2023-04-11T07:38:09.421Z,99.90
2023-04-11T07:43:12.335Z,99.90
2023-04-11T07:48:16.562Z,99.90
2023-04-11T07:53:19.437Z,99.90
2023-04-11T07:58:22.415Z,99.90
2023-04-11T08:03:28.214Z,99.90
2023-04-11T08:08:31.328Z,99.90
2023-04-11T08:13:36.522Z,99.90
2023-04-11T08:18:42.440Z,99.90
2023-04-11T08:23:47.527Z,99.90
2023-04-11T08:28:50.672Z,99.90
2023-04-11T08:33:56.182Z,99.90
2023-04-11T08:39:00.938Z,99.90
2023-04-11T08:44:03.834Z,99.90
2023-04-11T08:49:08.144Z,99.90
2023-04-11T08:54:12.498Z,99.90
2023-04-11T08:59:15.772Z,99.90
2023-04-11T09:04:19.977Z,99.90
2023-04-11T09:09:30.577Z,99.90
2023-04-11T09:14:33.762Z,99.90
2023-04-11T09:19:37.976Z,99.90
2023-04-11T09:24:42.873Z,99.90
2023-04-11T09:29:47.446Z,99.90
2023-04-11T09:34:51.680Z,99.90
2023-04-11T09:40:00.077Z,99.90
2023-04-11T09:45:03.899Z,99.90
2023-04-11T09:50:14.945Z,99.90
2023-04-11T09:55:21.037Z,99.90
2023-04-11T10:00:29.046Z,99.90
2023-04-11T10:05:34.851Z,99.90
2023-04-11T10:10:38.090Z,99.90
2023-04-11T10:16:09.007Z,99.90
2023-04-11T10:21:42.745Z,99.90
2023-04-11T10:26:53.025Z,99.90
2023-04-11T10:32:13.688Z,99.90
2023-04-11T10:37:16.615Z,99.90
2023-04-11T10:42:31.452Z,99.90
2023-04-11T10:47:34.423Z,99.90
2023-04-11T10:52:39.093Z,99.90
2023-04-11T10:58:06.886Z,99.90
2023-04-11T11:03:15.510Z,99.90
2023-04-11T11:08:30.884Z,99.90
2023-04-11T11:13:42.670Z,99.90
2023-04-11T11:18:47.786Z,99.90
2023-04-11T11:23:58.656Z,99.90
2023-04-11T11:29:03.551Z,99.90
2023-04-11T11:34:22.219Z,99.90
2023-04-11T11:39:30.993Z,99.90
2023-04-11T11:44:35.292Z,99.90
2023-04-11T11:49:48.760Z,99.90
2023-04-11T11:54:52.597Z,99.90
2023-04-11T11:59:57.277Z,99.90
2023-04-11T12:05:01.222Z,99.20
2023-04-11T12:10:07.931Z,97.90
2023-04-11T12:15:13.281Z,96.80
2023-04-11T12:20:16.727Z,96.00
2023-04-11T12:25:19.945Z,96.00
2023-04-11T12:30:26.102Z,95.50
2023-04-11T12:35:30.554Z,94.20
2023-04-11T12:40:33.649Z,93.50
2023-04-11T12:45:37.979Z,92.90
2023-04-11T12:50:41.969Z,92.40
2023-04-11T12:55:44.981Z,92.50
2023-04-11T13:00:49.256Z,92.10
2023-04-11T13:05:52.144Z,91.50
2023-04-11T13:10:56.001Z,90.80
2023-04-11T13:16:00.491Z,90.70
2023-04-11T13:21:03.395Z,90.40
2023-04-11T13:26:07.136Z,90.30
2023-04-11T13:31:11.469Z,90.00
2023-04-11T13:36:14.392Z,89.80
2023-04-11T13:41:17.412Z,89.80
2023-04-11T13:46:23.150Z,88.00
2023-04-11T13:51:27.216Z,87.60
2023-04-11T13:56:30.214Z,87.90
2023-04-11T14:01:38.439Z,88.20
2023-04-11T14:06:43.413Z,86.30
2023-04-11T14:11:48.884Z,85.00
2023-04-11T14:16:53.845Z,84.20
2023-04-11T14:21:57.834Z,83.20
2023-04-11T14:27:03.111Z,82.40
2023-04-11T14:32:07.880Z,81.70
2023-04-11T14:37:10.865Z,81.40
2023-04-11T14:42:13.773Z,81.10
2023-04-11T14:47:17.980Z,81.20
2023-04-11T14:52:21.096Z,80.50
2023-04-11T14:57:24.266Z,79.50
2023-04-11T15:02:30.011Z,78.90
2023-04-11T15:07:34.112Z,78.50
2023-04-11T15:12:36.996Z,77.80
2023-04-11T15:17:43.012Z,77.70
2023-04-11T15:22:47.325Z,76.60
2023-04-11T15:27:51.719Z,75.20
2023-04-11T15:32:55.981Z,74.50
2023-04-11T15:38:00.986Z,73.60
2023-04-11T15:43:04.734Z,72.70
2023-04-11T15:48:09.302Z,72.50
2023-04-11T15:53:12.842Z,72.30
2023-04-11T15:58:16.991Z,72.10
2023-04-11T16:03:21.384Z,71.90
2023-04-11T16:08:24.440Z,71.90
2023-04-11T16:13:28.327Z,71.40
2023-04-11T16:18:32.566Z,71.10
2023-04-11T16:23:56.164Z,71.30
2023-04-11T16:28:59.789Z,71.30
2023-04-11T16:34:15.428Z,70.60
2023-04-11T16:39:18.692Z,70.10
2023-04-11T16:44:26.567Z,69.60
2023-04-11T16:49:32.281Z,69.00
2023-04-11T16:54:37.625Z,69.10
2023-04-11T16:59:45.183Z,68.50
2023-04-11T17:04:50.607Z,70.90
2023-04-11T17:09:54.144Z,70.80
2023-04-11T17:15:02.454Z,70.60
2023-04-11T17:20:09.798Z,71.10
2023-04-11T17:25:29.431Z,71.80
2023-04-11T17:30:33.243Z,72.40
2023-04-11T17:35:37.772Z,72.90
2023-04-11T17:40:41.313Z,73.20
2023-04-11T17:45:50.011Z,73.10
2023-04-11T17:50:56.697Z,73.80
2023-04-11T17:56:30.239Z,73.50
2023-04-11T18:01:33.351Z,74.20
2023-04-11T18:06:38.033Z,74.80
2023-04-11T18:11:48.529Z,75.40
2023-04-11T18:17:20.526Z,76.20
2023-04-11T18:22:25.157Z,77.10
2023-04-11T18:27:28.212Z,77.30
2023-04-11T18:32:40.791Z,77.50
2023-04-11T18:37:49.727Z,77.60
2023-04-11T18:42:58.310Z,77.60
2023-04-11T18:48:02.104Z,79.50
2023-04-11T18:53:13.839Z,81.10
2023-04-11T18:58:31.973Z,82.80
2023-04-11T19:03:57.049Z,84.30
2023-04-11T19:09:06.328Z,85.90
2023-04-11T19:14:10.330Z,86.70
2023-04-11T19:19:13.843Z,87.90
2023-04-11T19:24:23.068Z,89.00
2023-04-11T19:29:26.188Z,89.80
2023-04-11T19:34:33.886Z,90.10
2023-04-11T19:39:41.504Z,90.30
2023-04-11T19:44:49.342Z,90.60
2023-04-11T19:49:56.917Z,90.90
2023-04-11T19:55:05.932Z,91.00
2023-04-11T20:00:38.212Z,91.40
2023-04-11T20:05:42.957Z,92.00
2023-04-11T20:10:58.451Z,92.60
2023-04-11T20:16:11.913Z,92.50
2023-04-11T20:21:22.050Z,92.60
2023-04-11T20:26:57.396Z,92.80
2023-04-11T20:32:11.927Z,92.60
2023-04-11T20:37:17.056Z,92.60
2023-04-11T20:42:23.171Z,92.80
2023-04-11T20:47:29.958Z,92.60
2023-04-11T20:52:37.977Z,92.50
2023-04-11T20:57:44.873Z,92.40
2023-04-11T21:02:50.963Z,92.20
2023-04-11T21:07:55.018Z,91.90
2023-04-11T21:12:58.089Z,92.10
2023-04-11T21:18:03.498Z,91.50
2023-04-11T21:23:07.484Z,91.30
2023-04-11T21:28:10.551Z,91.00
2023-04-11T21:33:15.097Z,91.00
2023-04-11T21:38:18.181Z,90.90
2023-04-11T21:43:21.195Z,90.70
2023-04-11T21:48:25.679Z,90.40
2023-04-11T21:53:28.805Z,90.40
2023-04-11T21:58:32.016Z,90.20
2023-04-11T22:03:40.342Z,90.00
2023-04-11T22:08:50.202Z,89.20
2023-04-11T22:13:53.240Z,88.50
2023-04-11T22:18:58.441Z,87.30
2023-04-11T22:24:02.170Z,86.50
2023-04-11T22:29:06.516Z,85.50
2023-04-11T22:34:12.291Z,85.50
2023-04-11T22:39:15.384Z,85.80
2023-04-11T22:44:19.014Z,86.60
2023-04-11T22:49:25.446Z,88.10
2023-04-11T22:54:29.146Z,89.70
2023-04-11T22:59:32.119Z,90.90
2023-04-11T23:04:36.578Z,91.90
2023-04-11T23:09:39.513Z,93.00
2023-04-11T23:14:42.429Z,94.90
2023-04-11T23:19:47.188Z,97.30
2023-04-11T23:24:53.355Z,99.90
2023-04-11T23:29:57.827Z,99.90
2023-04-11T23:35:02.922Z,99.90
2023-04-11T23:40:13.972Z,99.90
2023-04-11T23:45:22.689Z,99.90
2023-04-11T23:50:35.459Z,99.90
2023-04-11T23:55:40.868Z,99.90
